• Join FlightAware (Why Join?)
  • Login
  • US Flag 
10:24PM EDT


 

Airport Tracker/Info


-or-


 

Live Flight TrackerFlight Track Log ✈ N517MD ✈ 10-Sep-2013 ✈ KORL - MMAN / NTR

Flight Track Log - Related Links

Times and Time Zones

All times are in EDT time to prevent confusion due to time zone crossing. See the N517MD flight status page for this flight to view local times or setup timezone preferences in your user account.

Time Position Orientation Groundspeed Altitude Reporting Facility
EDT Latitude Longitude Course Direction KTS MPH feet Rate Location/Type
09:06PM 28.5500 -81.3167 28° Northeast 155 178 900  Level Orlando TRACON
09:08PM 28.6333 -81.2667 28° Northeast 261 300 1,500 960 Climbing Orlando TRACON
09:09PM 28.6147 -81.3908 260° West 284 327 3,900 1,680 Climbing Jacksonville Center
09:10PM 28.5825 -81.4694 245° Southwest 279 321 5,900 1,980 Climbing Jacksonville Center
09:11PM 28.5478 -81.5572 246° West 284 327 7,900 2,100 Climbing Jacksonville Center
09:12PM 28.5236 -81.6450 253° West 294 338 10,200 2,100 Climbing Jacksonville Center
09:13PM 28.4933 -81.7353 249° West 300 345 12,200 1,860 Climbing Jacksonville Center
09:14PM 28.4647 -81.8275 251° West 305 351 14,000 1,620 Climbing Jacksonville Center
09:15PM 28.4364 -81.9200 251° West 310 357 15,500 1,500 Climbing Jacksonville Center
09:16PM 28.4036 -82.0147 249° West 316 364 17,000 1,500 Climbing Jacksonville Center
09:17PM 28.3689 -82.1283 251° West 338 389 18,600 1,500 Climbing Jacksonville Center
09:18PM 28.3361 -82.2275 249° West 344 396 20,100 1,440 Climbing Jacksonville Center
09:19PM 28.3053 -82.3314 251° West 349 402 21,500 1,440 Climbing Jacksonville Center
09:20PM 28.2742 -82.4331 251° West 349 402 23,000 1,320 Climbing Jacksonville Center
09:21PM 28.2414 -82.5369 250° West 349 402 24,200 1,080 Climbing Jacksonville Center
09:22PM 28.2061 -82.6406 249° West 349 402 25,200 900 Climbing Jacksonville Center
09:24PM 28.1478 -82.8178 250° West 347 399 26,800 900 Climbing Miami Center
09:25PM 28.1119 -82.9289 250° West 360 414 27,800 960 Climbing Miami Center
09:26PM 28.0758 -83.0375 249° West 366 421 28,800 900 Climbing Miami Center
09:27PM 28.0397 -83.1483 250° West 371 427 29,700 1,200 Climbing Miami Center
09:28PM 28.0036 -83.2589 250° West 376 433 31,300 1,560 Climbing Miami Center
09:29PM 27.9697 -83.3628 250° West 376 433 32,900 1,260 Climbing Miami Center
09:30PM 27.9358 -83.4664 250° West 366 421 33,900 960 Climbing Miami Center
09:31PM 27.8997 -83.5700 248° West 361 415 34,900 960 Climbing Miami Center
09:32PM 27.8678 -83.6736 251° West 361 415 35,900 840 Climbing Miami Center
09:33PM 27.8314 -83.7794 249° West 361 415 36,600 600 Climbing Miami Center
09:34PM 27.7972 -83.8853 250° West 361 415 37,200 540 Climbing Miami Center
09:36PM 27.7142 -84.1372 250° West 366 421 38,400 420 Climbing Jacksonville Center
09:37PM 27.6733 -84.2467 247° West 371 427 38,700 240 Climbing Jacksonville Center
09:38PM 27.6367 -84.3586 250° West 376 433 38,900 240 Climbing Jacksonville Center
09:39PM 27.6061 -84.4708 253° West 381 438 39,200 180 Climbing Jacksonville Center
09:40PM 27.5589 -84.5847 245° Southwest 388 447 39,300 120 Climbing Jacksonville Center
09:41PM 27.5239 -84.7011 251° West 394 453 39,500 180 Climbing Jacksonville Center
09:42PM 27.4931 -84.8197 254° West 394 453 39,700 180 Climbing Jacksonville Center
09:43PM 27.4869 -84.9414 267° West 394 453 39,900 120 Climbing Jacksonville Center
09:44PM 27.4744 -85.0631 263° West 397 457 40,000  Climbing Houston Center
09:46PM 27.4650 -85.1894 265° West 402 463 40,000  Level Houston Center
09:47PM 27.4556 -85.3156 265° West 404 465 40,000  Level Houston Center
09:48PM 27.4453 -85.4425 265° West 407 468 40,000  Level Houston Center
09:49PM 27.4358 -85.5686 265° West 405 466 40,000  Level Houston Center
09:50PM 27.4253 -85.6994 265° West 416 479 40,000  Level Houston Center
09:51PM 27.4161 -85.8283 265° West 414 476 40,000  Level Houston Center
09:52PM 27.4033 -85.9839 265° West 416 479 40,000  Level Houston Center
09:53PM 27.3925 -86.1131 265° West 416 479 40,000  Level Houston Center
09:54PM 27.3822 -86.2425 265° West 415 478 40,000  Level Houston Center
09:55PM 27.3714 -86.3725 265° West 417 480 40,000  Level Houston Center
09:56PM 27.3611 -86.4997 265° West 411 473 40,000 -60 Level Houston Center
09:57PM 27.3489 -86.6256 264° West 405 466 39,900  Descending Houston Center
09:58PM 27.3383 -86.7514 265° West 404 465 40,000  Climbing Houston Center
09:59PM 27.3267 -86.8772 264° West 405 466 40,000  Level Houston Center
10:00PM 27.3153 -87.0000 264° West 398 458 40,000  Level Houston Center
10:01PM 27.3036 -87.1253 264° West 402 463 40,000  Level Houston Center
10:02PM 27.2928 -87.2517 265° West 405 466 40,000  Level Houston Center
10:03PM 27.2822 -87.3756 265° West 402 463 40,000  Level Houston Center
10:04PM 27.2700 -87.5000 264° West 402 463 40,000  Level Houston Center
10:05PM 27.2578 -87.6231 264° West 399 459 40,000  Level Houston Center
10:06PM 27.2467 -87.7492 264° West 400 460 40,000  Level Houston Center
10:07PM 27.2317 -87.8961 263° West 399 459 40,000  Level Houston Center
10:08PM 27.2211 -88.0211 265° West 401 461 40,000  Level Houston Center
10:09PM 27.2086 -88.1444 264° West 399 459 40,000  Level Houston Center
10:10PM 27.1967 -88.2681 264° West 397 457 40,000  Level Houston Center
10:11PM 27.1842 -88.3936 264° West 402 463 40,000  Level Houston Center
10:12PM 27.1719 -88.5178 264° West 402 463 40,000  Level Houston Center
10:13PM 27.1600 -88.6425 264° West 402 463 40,000  Level Houston Center
10:14PM 27.1467 -88.7675 263° West 403 464 40,000  Level Houston Center
10:15PM 27.1333 -88.8922 263° West 403 464 40,000  Level Houston Center
10:16PM 27.1214 -89.0181 264° West 405 466 40,000  Level Houston Center
10:17PM 27.1078 -89.1458 263° West 408 470 40,000  Level Houston Center
10:18PM 27.0939 -89.2767 263° West 412 474 40,000  Level Houston Center
10:19PM 27.0803 -89.4033 263° West 413 475 40,000  Level Houston Center
10:20PM 27.0675 -89.5278 263° West 411 473 40,000  Level Houston Center
10:21PM 27.0542 -89.6556 263° West 410 472 40,000  Level Houston Center
10:22PM 27.0397 -89.7856 263° West 413 475 40,000  Level Houston Center
10:23PM 27.0264 -89.9097 263° West 412 474 40,000  Level Houston Center
10:24PM 27.0089 -90.0600 263° West 409 471 40,000  Level Houston Center
10:25PM 26.9956 -90.1864 263° West 408 470 40,000  Level Houston Center
10:26PM 26.9808 -90.3133 263° West 409 471 40,000  Level Houston Center
10:27PM 26.9672 -90.4394 263° West 409 471 40,000  Level Houston Center
10:28PM 26.9531 -90.5683 263° West 411 473 40,000  Level Houston Center
10:29PM 26.9386 -90.6939 263° West 411 473 40,000  Level Houston Center
10:30PM 26.9242 -90.8192 263° West 409 471 40,000  Level Houston Center
10:31PM 26.9097 -90.9531 263° West 412 474 40,000  Level Houston Center
10:32PM 26.8950 -91.0778 262° West 414 476 40,000  Level Houston Center
10:33PM 26.8778 -91.1975 261° West 408 470 40,000  Level Houston Center
10:34PM 26.8619 -91.3250 262° West 410 472 40,000  Level Houston Center
10:35PM 26.8472 -91.4522 263° West 412 474 40,000  Level Houston Center
10:36PM 26.8322 -91.5800 263° West 413 475 40,000  Level Houston Center
10:37PM 26.8147 -91.7172 262° West 415 478 40,000  Level Houston Center
10:38PM 26.8008 -91.8342 262° West 414 476 40,000  Level Houston Center
10:39PM 26.7836 -91.9694 262° West 409 471 40,000  Level Houston Center
10:40PM 26.7675 -92.0975 262° West 413 475 40,000  Level Houston Center
10:41PM 26.7500 -92.2375 262° West 417 480 40,000  Level Houston Center
10:42PM 26.7344 -92.3553 262° West 418 481 40,000  Level Houston Center
10:43PM 26.7178 -92.4872 262° West 421 484 40,000  Level Houston Center
10:44PM 26.7033 -92.6175 263° West 423 487 40,000  Level Houston Center
10:45PM 26.6883 -92.7714 264° West 421 484 40,000  Level Houston Center
10:46PM 26.6753 -92.8983 263° West 419 482 40,000  Level Houston Center
10:47PM 26.6611 -93.0253 263° West 417 480 40,000  Level Houston Center
10:48PM 26.6483 -93.1519 264° West 415 478 40,000  Level Houston Center
10:49PM 26.6336 -93.2864 263° West 419 482 40,000  Level Houston Center
10:50PM 26.6206 -93.4133 263° West 419 482 40,000 -60 Level Houston Center
10:51PM 26.6067 -93.5422 263° West 417 480 39,900  Descending Houston Center
10:52PM 26.5922 -93.6639 262° West 413 475 40,000  Climbing Houston Center
10:53PM 26.5778 -93.7942 263° West 417 480 40,000  Level Houston Center
10:54PM 26.5622 -93.9256 262° West 422 486 40,000  Level Houston Center
10:55PM 26.5478 -94.0561 263° West 423 487 40,000  Level Houston Center
10:56PM 26.5314 -94.1983 263° West 420 483 40,000  Level Houston Center
10:58PM 26.5158 -94.3281 262° West 422 486 40,000  Level Houston Center
10:59PM 26.5011 -94.4592 263° West 425 489 40,000  Level Houston Center
11:00PM 26.4858 -94.5906 263° West 425 489 40,000  Level Houston Center
11:01PM 26.4706 -94.7200 263° West 423 487 40,000  Level Houston Center
11:02PM 26.4539 -94.8519 262° West 428 493 40,000 -60 Level Houston Center
11:03PM 26.4389 -94.9847 263° West 429 494 39,900  Descending Houston Center
11:04PM 26.4217 -95.1244 262° West 425 489 40,000  Climbing Houston Center
11:05PM 26.4069 -95.2558 263° West 426 490 40,000  Level Houston Center
11:06PM 26.3900 -95.3867 262° West 427 491 40,000  Level Houston Center
11:07PM 26.3739 -95.5167 262° West 425 489 40,000  Level Houston Center
11:08PM 26.3583 -95.6478 262° West 426 490 40,000  Level Houston Center
11:09PM 26.3419 -95.7783 262° West 427 491 40,000  Level Houston Center
11:10PM 26.3242 -95.9097 261° West 427 491 40,000  Level Houston Center
11:11PM 26.3081 -96.0406 262° West 427 491 40,000  Level Houston Center
11:12PM 26.2917 -96.1697 262° West 424 488 40,000  Level Houston Center
11:13PM 26.2750 -96.2997 262° West 425 489 40,000  Level Houston Center
11:14PM 26.2572 -96.4317 261° West 427 491 40,000  Level Houston Center
11:15PM 26.2400 -96.5628 262° West 428 493 40,000  Level Houston Center
11:16PM 26.2236 -96.6933 262° West 427 491 40,000  Level Houston Center
11:17PM 26.2031 -96.8408 261° West 426 490 40,000  Level Houston Center
11:18PM 26.1839 -96.9825 261° West 429 494 40,000  Level Houston Center
11:19PM 26.1664 -97.1136 262° West 430 495 40,000  Level Houston Center
11:20PM 26.1483 -97.2450 261° West 430 495 40,000  Level Houston Center
11:21PM 26.1306 -97.3764 261° West 430 495 40,000  Level Houston Center
11:22PM 26.1114 -97.5075 261° West 429 494 40,000  Level Houston Center
11:23PM 26.0947 -97.6400 262° West 439 505 40,000  Level Houston Center
11:24PM 26.0744 -97.7769 261° West 452 520 40,000  Level Houston Center
11:25PM 26.0544 -97.9164 261° West 445 512 40,000  Level Houston Center
11:26PM 26.0361 -98.0486 261° West 435 501 40,000  Level Houston Center
11:28PM 25.9971 -98.2397 262° West  Level FlightAware Approximate
11:35PM 25.9022 -99.0462 261° West  Level FlightAware Approximate
11:36PM 25.8854 -99.1609 261° West  Level FlightAware Approximate
11:37PM 25.8685 -99.2756 261° West  Level FlightAware Approximate
11:38PM 25.8515 -99.3902 261° West  Level FlightAware Approximate
11:39PM 25.8488 -99.5061 257° West  Level FlightAware Approximate
11:40PM 25.8281 -99.6199 261° West  Level FlightAware Approximate
11:41PM 25.8118 -99.7347 261° West  Level FlightAware Approximate
11:42PM 25.7970 -99.8496 264° West  Level FlightAware Approximate
11:43PM 25.7865 -99.9652 264° West  Level FlightAware Approximate
11:44PM 25.7667 -100.0778 270° West  Level FlightAware Approximate
11:45PM 25.8198 -100.1729 299° West  Level FlightAware Approximate